Time;durP1;ratioP1;P1;durP2;ratioP2;P2;SDS_P1;SDS_P2;PMS_P1;PMS_P2;Temp;Humidity;BMP_temperature;BMP_pressure;BME280_temperature;BME280_humidity;BME280_pressure;Samples;Min_cycle;Max_cycle;Signal;HPM_P1;HPM_P2
2023/12/24 00:01:49;;;;;;;;;;;;;;;;;;6281522;28;19952;-86
2023/12/24 00:04:50;;;;;;;;;;;;;;;;;;5932950;28;10000443;-84
2023/12/24 00:07:50;;;;;;;;;;;;;;;;;;6292475;28;19912;-84
2023/12/24 00:10:50;;;;;;;;;;;;;;;;;;6280387;28;19920;-85
2023/12/24 00:13:50;;;;;;;;;;;;;;;;;;6280045;28;19920;-84
2023/12/24 00:16:50;;;;;;;;;;;;;;;;;;6280252;28;19916;-84
2023/12/24 00:19:50;;;;;;;;;;;;;;;;;;6273151;28;20392;-84
2023/12/24 00:22:50;;;;;;;;;;;;;;;;;;6281904;28;19921;-84
2023/12/24 00:25:50;;;;;;;;;;;;;;;;;;6284471;28;20016;-84
2023/12/24 00:28:51;;;;;;;;;;;;;;;;;;6286961;28;20009;-85
2023/12/24 00:31:51;;;;;;;;;;;;;;;;;;6280402;28;19920;-84
2023/12/24 00:34:51;;;;;;;;;;;;;;;;;;6285227;28;19913;-84
2023/12/24 00:37:51;;;;;;;;;;;;;;;;;;6279048;28;20004;-83
2023/12/24 00:40:51;;;;;;;;;;;;;;;;;;6285711;28;20023;-84
2023/12/24 00:43:51;;;;;;;;;;;;;;;;;;6283627;28;19993;-84
2023/12/24 00:46:52;;;;;;;;;;;;;;;;;;6284111;28;19920;-84
2023/12/24 00:49:52;;;;;;;;;;;;;;;;;;6276246;28;19912;-84
2023/12/24 00:52:52;;;;;;;;;;;;;;;;;;6277249;28;19913;-84
2023/12/24 00:55:52;;;;;;;;;;;;;;;;;;6288277;28;19916;-84
2023/12/24 00:58:52;;;;;;;;;;;;;;;;;;6288605;28;19923;-84
2023/12/24 01:01:52;;;;;;;;;;;;;;;;;;6276161;28;19925;-84
2023/12/24 01:04:52;;;;;;;;;;;;;;;;;;6277979;28;19921;-84
2023/12/24 01:07:53;;;;;;;;;;;;;;;;;;6286800;28;19938;-84
2023/12/24 01:10:53;;;;;;;;;;;;;;;;;;6282994;28;20373;-84
2023/12/24 01:13:53;;;;;;;;;;;;;;;;;;6276605;28;19920;-84
2023/12/24 01:16:53;;;;;;;;;;;;;;;;;;6266258;28;19999;-84
2023/12/24 01:19:53;;;;;;;;;;;;;;;;;;6278923;28;19920;-84
2023/12/24 01:22:53;;;;;;;;;;;;;;;;;;6279050;28;20289;-84
2023/12/24 01:25:53;;;;;;;;;;;;;;;;;;6280542;28;20285;-84
2023/12/24 01:28:54;;;;;;;;;;;;;;;;;;6275897;28;20278;-84
2023/12/24 01:31:54;;;;;;;;;;;;;;;;;;6275506;28;20292;-84
2023/12/24 01:34:54;;;;;;;;;;;;;;;;;;6284154;28;19920;-84
2023/12/24 01:37:54;;;;;;;;;;;;;;;;;;6275173;28;19913;-84
2023/12/24 01:40:54;;;;;;;;;;;;;;;;;;6276711;28;19916;-84
2023/12/24 01:43:54;;;;;;;;;;;;;;;;;;6278843;28;19920;-84
2023/12/24 01:46:54;;;;;;;;;;;;;;;;;;6277913;28;19920;-84
2023/12/24 01:49:55;;;;;;;;;;;;;;;;;;6278743;28;20293;-84
2023/12/24 01:52:55;;;;;;;;;;;;;;;;;;6279519;28;19912;-84
2023/12/24 01:55:55;;;;;;;;;;;;;;;;;;6278065;28;19913;-84
2023/12/24 01:58:55;;;;;;;;;;;;;;;;;;6275279;28;20385;-84
2023/12/24 02:01:55;;;;;;;;;;;;;;;;;;6280322;28;20334;-84
2023/12/24 02:04:55;;;;;;;;;;;;;;;;;;6283930;28;19943;-81
2023/12/24 02:07:55;;;;;;;;;;;;;;;;;;6287921;28;19913;-81
2023/12/24 02:10:56;;;;;;;;;;;;;;;;;;6286986;28;19913;-82
2023/12/24 02:13:56;;;;;;;;;;;;;;;;;;6288564;28;20446;-84
2023/12/24 02:16:56;;;;;;;;;;;;;;;;;;6296071;28;19913;-81
2023/12/24 02:19:56;;;;;;;;;;;;;;;;;;6291632;28;19956;-81
2023/12/24 02:22:56;;;;;;;;;;;;;;;;;;6289056;28;19920;-82
2023/12/24 02:25:57;;;;;;;;;;;;;;;;;;6293486;28;19981;-82
2023/12/24 02:28:57;;;;;;;;;;;;;;;;;;6282331;28;20007;-84
2023/12/24 02:31:57;;;;;;;;;;;;;;;;;;6280483;28;20003;-82
2023/12/24 02:34:59;;;;;;;;;;;;;;;;;;6286378;28;19912;-81
2023/12/24 02:37:59;;;;;;;;;;;;;;;;;;6292278;28;20445;-80
2023/12/24 02:40:59;;;;;;;;;;;;;;;;;;6295636;28;19920;-81
2023/12/24 02:43:59;;;;;;;;;;;;;;;;;;6288661;28;19921;-80
2023/12/24 02:46:59;;;;;;;;;;;;;;;;;;6293113;28;19920;-80
2023/12/24 02:50:00;;;;;;;;;;;;;;;;;;6286747;28;20065;-80
2023/12/24 02:53:00;;;;;;;;;;;;;;;;;;6285782;28;20007;-80
2023/12/24 02:56:00;;;;;;;;;;;;;;;;;;6286552;28;20016;-80
2023/12/24 02:59:00;;;;;;;;;;;;;;;;;;6287983;28;20349;-80
2023/12/24 03:02:00;;;;;;;;;;;;;;;;;;6282810;28;19921;-80
2023/12/24 03:05:00;;;;;;;;;;;;;;;;;;6286245;28;19932;-80
2023/12/24 03:08:01;;;;;;;;;;;;;;;;;;6284869;28;20357;-79
2023/12/24 03:11:01;;;;;;;;;;;;;;;;;;6289227;28;19958;-79
2023/12/24 03:14:01;;;;;;;;;;;;;;;;;;6291654;28;19913;-79
2023/12/24 03:17:01;;;;;;;;;;;;;;;;;;6291095;28;19920;-81
2023/12/24 03:20:02;;;;;;;;;;;;;;;;;;6280874;28;19924;-79
2023/12/24 03:23:02;;;;;;;;;;;;;;;;;;6287014;28;20525;-79
2023/12/24 03:26:03;;;;;;;;;;;;;;;;;;6284223;28;19978;-79
2023/12/24 03:29:03;;;;;;;;;;;;;;;;;;6285226;28;19920;-79
2023/12/24 03:32:03;;;;;;;;;;;;;;;;;;6278611;28;19913;-79
2023/12/24 03:35:03;;;;;;;;;;;;;;;;;;6283248;28;19927;-80
2023/12/24 03:38:04;;;;;;;;;;;;;;;;;;6277671;28;19920;-79
2023/12/24 03:41:04;;;;;;;;;;;;;;;;;;6282473;28;19920;-80
2023/12/24 03:44:04;;;;;;;;;;;;;;;;;;6285622;28;19924;-79
2023/12/24 03:47:04;;;;;;;;;;;;;;;;;;6275789;28;19927;-79
2023/12/24 03:50:05;;;;;;;;;;;;;;;;;;6282687;28;19935;-79
2023/12/24 03:53:06;;;;;;;;;;;;;;;;;;6282233;28;20377;-79
2023/12/24 03:56:06;;;;;;;;;;;;;;;;;;6279262;28;19912;-80
2023/12/24 03:59:06;;;;;;;;;;;;;;;;;;6280830;28;19913;-79
2023/12/24 04:02:06;;;;;;;;;;;;;;;;;;6279467;28;20702;-79
2023/12/24 04:05:06;;;;;;;;;;;;;;;;;;6280886;28;19920;-79
2023/12/24 04:08:07;;;;;;;;;;;;;;;;;;6282009;28;19923;-80
2023/12/24 04:11:07;;;;;;;;;;;;;;;;;;6274230;28;19921;-79
2023/12/24 04:14:07;;;;;;;;;;;;;;;;;;6281969;28;19936;-79
2023/12/24 04:17:07;;;;;;;;;;;;;;;;;;6288506;28;19920;-79
2023/12/24 04:20:07;;;;;;;;;;;;;;;;;;6286770;28;19921;-79
2023/12/24 04:23:07;;;;;;;;;;;;;;;;;;6294868;28;19916;-82
2023/12/24 04:26:07;;;;;;;;;;;;;;;;;;6286979;28;19919;-82
2023/12/24 04:29:07;;;;;;;;;;;;;;;;;;6273658;28;19912;-82
2023/12/24 04:32:08;;;;;;;;;;;;;;;;;;6267535;28;19971;-82
2023/12/24 04:35:09;;;;;;;;;;;;;;;;;;6288903;28;20304;-83
2023/12/24 04:38:09;;;;;;;;;;;;;;;;;;6270487;28;19921;-82
2023/12/24 04:41:09;;;;;;;;;;;;;;;;;;6289195;28;19939;-82
2023/12/24 04:44:09;;;;;;;;;;;;;;;;;;6291613;28;19913;-82
2023/12/24 04:47:09;;;;;;;;;;;;;;;;;;6283569;28;19966;-82
2023/12/24 04:50:09;;;;;;;;;;;;;;;;;;6286032;28;19916;-82
2023/12/24 04:53:09;;;;;;;;;;;;;;;;;;6289034;28;19914;-83
2023/12/24 04:56:09;;;;;;;;;;;;;;;;;;6280313;28;19913;-82
2023/12/24 04:59:10;;;;;;;;;;;;;;;;;;6285854;28;19920;-82
2023/12/24 05:02:10;;;;;;;;;;;;;;;;;;6286688;28;20280;-82
2023/12/24 05:05:10;;;;;;;;;;;;;;;;;;6287371;28;19925;-82
2023/12/24 05:08:10;;;;;;;;;;;;;;;;;;6286346;28;19936;-82
2023/12/24 05:11:11;;;;;;;;;;;;;;;;;;6290460;28;19919;-82
2023/12/24 05:14:11;;;;;;;;;;;;;;;;;;6283604;28;19920;-82
2023/12/24 05:17:11;;;;;;;;;;;;;;;;;;6286706;28;19923;-82
2023/12/24 05:20:11;;;;;;;;;;;;;;;;;;6287846;28;19970;-82
2023/12/24 05:23:11;;;;;;;;;;;;;;;;;;6290581;28;19916;-81
2023/12/24 05:26:14;;;;;;;;;;;;;;;;;;6288016;28;21443;-82
2023/12/24 05:29:14;;;;;;;;;;;;;;;;;;6284561;28;19912;-82
2023/12/24 05:32:14;;;;;;;;;;;;;;;;;;6285895;28;19913;-82
2023/12/24 05:35:14;;;;;;;;;;;;;;;;;;6284996;28;19923;-79
2023/12/24 05:38:14;;;;;;;;;;;;;;;;;;6284720;28;19927;-79
2023/12/24 05:41:14;;;;;;;;;;;;;;;;;;6281660;28;19920;-79
2023/12/24 05:44:15;;;;;;;;;;;;;;;;;;6284548;28;19923;-80
2023/12/24 05:47:15;;;;;;;;;;;;;;;;;;6283088;28;19920;-80
2023/12/24 05:50:15;;;;;;;;;;;;;;;;;;6289778;28;19925;-79
2023/12/24 05:53:15;;;;;;;;;;;;;;;;;;6282010;28;19920;-79
2023/12/24 05:56:15;;;;;;;;;;;;;;;;;;6283167;28;19913;-79
2023/12/24 05:59:15;;;;;;;;;;;;;;;;;;6284089;28;19912;-80
2023/12/24 06:02:15;;;;;;;;;;;;;;;;;;6290775;28;19951;-82
2023/12/24 06:05:15;;;;;;;;;;;;;;;;;;6286833;28;19912;-79
2023/12/24 06:08:16;;;;;;;;;;;;;;;;;;6291344;28;19963;-80
2023/12/24 06:11:16;;;;;;;;;;;;;;;;;;6278940;28;19956;-79
2023/12/24 06:14:16;;;;;;;;;;;;;;;;;;6283649;28;19920;-79
2023/12/24 06:17:16;;;;;;;;;;;;;;;;;;6286716;28;20332;-79
2023/12/24 06:20:17;;;;;;;;;;;;;;;;;;6286301;28;20337;-79
2023/12/24 06:23:17;;;;;;;;;;;;;;;;;;6289019;28;19944;-79
2023/12/24 06:26:17;;;;;;;;;;;;;;;;;;6280371;28;20077;-79
2023/12/24 06:29:17;;;;;;;;;;;;;;;;;;6288006;28;20049;-79
2023/12/24 06:32:17;;;;;;;;;;;;;;;;;;6282173;28;19956;-80
2023/12/24 06:35:17;;;;;;;;;;;;;;;;;;6278248;28;20373;-79
2023/12/24 06:38:18;;;;;;;;;;;;;;;;;;6278952;28;19920;-79
2023/12/24 06:41:18;;;;;;;;;;;;;;;;;;6287578;28;19928;-79
2023/12/24 06:44:18;;;;;;;;;;;;;;;;;;6271463;28;19917;-81
2023/12/24 06:47:18;;;;;;;;;;;;;;;;;;6281826;28;19913;-80
2023/12/24 06:50:20;;;;;;;;;;;;;;;;;;6287923;28;19966;-79
2023/12/24 06:53:20;;;;;;;;;;;;;;;;;;6281872;28;19919;-80
2023/12/24 06:56:20;;;;;;;;;;;;;;;;;;6272207;28;20404;-79
2023/12/24 06:59:20;;;;;;;;;;;;;;;;;;6292997;28;20297;-81
2023/12/24 07:02:20;;;;;;;;;;;;;;;;;;6282623;28;19932;-80
2023/12/24 07:05:21;;;;;;;;;;;;;;;;;;6285814;28;20340;-79
2023/12/24 07:08:21;;;;;;;;;;;;;;;;;;6286847;28;19913;-80
2023/12/24 07:11:21;;;;;;;;;;;;;;;;;;6290871;28;20026;-80
2023/12/24 07:14:21;;;;;;;;;;;;;;;;;;6288103;28;19965;-80
2023/12/24 07:17:21;;;;;;;;;;;;;;;;;;6288621;28;19913;-80
2023/12/24 07:20:21;;;;;;;;;;;;;;;;;;6290760;28;19928;-80
2023/12/24 07:23:22;;;;;;;;;;;;;;;;;;6291543;28;19916;-80
2023/12/24 07:26:22;;;;;;;;;;;;;;;;;;6294203;28;19921;-80
2023/12/24 07:29:22;;;;;;;;;;;;;;;;;;6285685;28;20426;-80
2023/12/24 07:32:22;;;;;;;;;;;;;;;;;;6281789;28;19912;-79
2023/12/24 07:35:22;;;;;;;;;;;;;;;;;;6283586;28;19921;-79
2023/12/24 07:38:23;;;;;;;;;;;;;;;;;;6290495;28;20374;-80
2023/12/24 07:41:26;;;;;;;;;;;;;;;;;;6279915;28;19926;-79
2023/12/24 07:44:26;;;;;;;;;;;;;;;;;;6267948;28;20288;-79
2023/12/24 07:47:26;;;;;;;;;;;;;;;;;;6283987;28;19928;-79
2023/12/24 07:50:26;;;;;;;;;;;;;;;;;;6267881;28;20399;-79
2023/12/24 07:53:26;;;;;;;;;;;;;;;;;;6278406;28;19935;-82
2023/12/24 07:56:27;;;;;;;;;;;;;;;;;;6289317;28;19957;-82
2023/12/24 07:59:27;;;;;;;;;;;;;;;;;;6280806;28;19952;-83
2023/12/24 08:02:27;;;;;;;;;;;;;;;;;;6288112;28;19970;-82
2023/12/24 08:05:27;;;;;;;;;;;;;;;;;;6285185;28;20085;-82
2023/12/24 08:08:27;;;;;;;;;;;;;;;;;;6291992;28;19954;-82
2023/12/24 08:11:27;;;;;;;;;;;;;;;;;;6285548;28;19955;-82
2023/12/24 08:14:27;;;;;;;;;;;;;;;;;;6287018;28;19913;-82
2023/12/24 08:17:27;;;;;;;;;;;;;;;;;;6293248;28;19924;-82
2023/12/24 08:20:28;;;;;;;;;;;;;;;;;;6272589;28;19928;-82
2023/12/24 08:23:28;;;;;;;;;;;;;;;;;;6290302;28;20408;-82
2023/12/24 08:26:28;;;;;;;;;;;;;;;;;;6288973;28;19912;-82
2023/12/24 08:29:28;;;;;;;;;;;;;;;;;;6281674;28;19909;-83
2023/12/24 08:32:28;;;;;;;;;;;;;;;;;;6282008;28;19917;-82
2023/12/24 08:35:28;;;;;;;;;;;;;;;;;;6289381;28;19920;-82
2023/12/24 08:38:29;;;;;;;;;;;;;;;;;;6288327;28;20062;-82
2023/12/24 08:41:29;;;;;;;;;;;;;;;;;;6289701;28;19928;-81
2023/12/24 08:44:29;;;;;;;;;;;;;;;;;;6280295;28;19919;-81
2023/12/24 08:47:29;;;;;;;;;;;;;;;;;;6281047;28;20292;-82
2023/12/24 08:50:29;;;;;;;;;;;;;;;;;;6297344;28;19916;-85
2023/12/24 08:53:29;;;;;;;;;;;;;;;;;;6284219;28;19913;-81
2023/12/24 08:56:29;;;;;;;;;;;;;;;;;;6285187;28;19919;-82
2023/12/24 08:59:30;;;;;;;;;;;;;;;;;;6284139;28;19912;-82
2023/12/24 09:02:30;;;;;;;;;;;;;;;;;;6275156;28;19924;-82
2023/12/24 09:05:30;;;;;;;;;;;;;;;;;;6281381;28;19929;-83
2023/12/24 09:08:30;;;;;;;;;;;;;;;;;;6298833;28;19912;-82
2023/12/24 09:11:30;;;;;;;;;;;;;;;;;;6293406;28;19920;-82
2023/12/24 09:14:30;;;;;;;;;;;;;;;;;;6291232;28;20346;-82
2023/12/24 09:17:30;;;;;;;;;;;;;;;;;;6293903;28;19975;-82
2023/12/24 09:20:31;;;;;;;;;;;;;;;;;;6287579;28;19997;-82
2023/12/24 09:23:31;;;;;;;;;;;;;;;;;;6290063;28;20369;-82
2023/12/24 09:26:31;;;;;;;;;;;;;;;;;;6275683;28;19920;-83
2023/12/24 09:29:31;;;;;;;;;;;;;;;;;;6277588;28;19917;-82
2023/12/24 09:32:31;;;;;;;;;;;;;;;;;;6284016;28;19956;-82
2023/12/24 09:35:31;;;;;;;;;;;;;;;;;;6295173;28;19920;-82
2023/12/24 09:38:31;;;;;;;;;;;;;;;;;;6272545;28;19912;-82
2023/12/24 09:41:32;;;;;;;;;;;;;;;;;;6277736;28;19921;-82
2023/12/24 09:44:34;;;;;;;;;;;;;;;;;;6280903;28;19916;-82
2023/12/24 09:47:34;;;;;;;;;;;;;;;;;;6283616;28;19960;-81
2023/12/24 09:50:34;;;;;;;;;;;;;;;;;;6285496;28;19913;-84
2023/12/24 09:53:34;;;;;;;;;;;;;;;;;;6272097;28;20016;-83
2023/12/24 09:56:34;;;;;;;;;;;;;;;;;;6285771;28;20003;-82
2023/12/24 09:59:35;;;;;;;;;;;;;;;;;;6282418;28;20070;-82
2023/12/24 10:02:35;;;;;;;;;;;;;;;;;;6288108;28;20073;-83
2023/12/24 10:05:35;;;;;;;;;;;;;;;;;;6290773;28;20402;-82
2023/12/24 10:08:35;;;;;;;;;;;;;;;;;;6288605;28;19935;-84
2023/12/24 10:11:37;;;;;;;;;;;;;;;;;;6284184;28;20363;-83
2023/12/24 10:14:37;;;;;;;;;;;;;;;;;;6276801;28;19912;-82
2023/12/24 10:17:37;;;;;;;;;;;;;;;;;;6281189;28;19913;-82
2023/12/24 10:20:37;;;;;;;;;;;;;;;;;;6278387;28;19928;-83
2023/12/24 10:23:37;;;;;;;;;;;;;;;;;;6284581;28;19913;-82
2023/12/24 10:26:38;;;;;;;;;;;;;;;;;;6286732;28;20364;-82
2023/12/24 10:29:38;;;;;;;;;;;;;;;;;;6284399;28;19923;-82
2023/12/24 10:32:38;;;;;;;;;;;;;;;;;;6295755;28;19919;-83
2023/12/24 10:35:38;;;;;;;;;;;;;;;;;;6288081;28;19912;-82
2023/12/24 10:38:38;;;;;;;;;;;;;;;;;;6286327;28;19920;-82
2023/12/24 10:41:38;;;;;;;;;;;;;;;;;;6285916;28;19989;-82
2023/12/24 10:44:39;;;;;;;;;;;;;;;;;;6286103;28;19979;-82
2023/12/24 10:47:39;;;;;;;;;;;;;;;;;;6298956;28;20005;-82
2023/12/24 10:50:39;;;;;;;;;;;;;;;;;;6286458;28;19912;-84
2023/12/24 10:53:39;;;;;;;;;;;;;;;;;;6292592;28;19912;-84
2023/12/24 10:56:39;;;;;;;;;;;;;;;;;;6273237;28;19919;-84
2023/12/24 10:59:39;;;;;;;;;;;;;;;;;;6290267;28;20004;-85
2023/12/24 11:02:40;;;;;;;;;;;;;;;;;;6274072;28;19921;-85
2023/12/24 11:05:40;;;;;;;;;;;;;;;;;;6280927;28;20071;-86
2023/12/24 11:08:40;;;;;;;;;;;;;;;;;;6294644;28;20011;-83
2023/12/24 11:11:40;;;;;;;;;;;;;;;;;;6289506;28;20002;-83
2023/12/24 11:14:47;;;;;;;;;;;;;;;;;;6275507;28;20051;-82
2023/12/24 11:17:47;;;;;;;;;;;;;;;;;;6278478;28;19912;-83
2023/12/24 11:20:47;;;;;;;;;;;;;;;;;;6263726;28;19927;-84
2023/12/24 11:23:47;;;;;;;;;;;;;;;;;;6289987;28;19920;-84
2023/12/24 11:26:48;;;;;;;;;;;;;;;;;;6293195;28;19920;-84
2023/12/24 11:29:48;;;;;;;;;;;;;;;;;;6279796;28;19913;-84
2023/12/24 11:32:48;;;;;;;;;;;;;;;;;;6285720;28;19912;-84
2023/12/24 11:35:48;;;;;;;;;;;;;;;;;;6285882;28;19932;-82
2023/12/24 11:38:48;;;;;;;;;;;;;;;;;;6286754;28;19923;-84
2023/12/24 11:41:48;;;;;;;;;;;;;;;;;;6289257;28;19921;-82
2023/12/24 11:44:48;;;;;;;;;;;;;;;;;;6297336;28;19966;-82
2023/12/24 11:47:49;;;;;;;;;;;;;;;;;;6283500;28;20050;-84
2023/12/24 11:50:49;;;;;;;;;;;;;;;;;;6291872;28;20236;-82
2023/12/24 11:53:49;;;;;;;;;;;;;;;;;;6285421;28;19993;-82
2023/12/24 11:56:50;;;;;;;;;;;;;;;;;;6290208;28;19913;-82
2023/12/24 11:59:50;;;;;;;;;;;;;;;;;;6289506;28;19921;-83
2023/12/24 12:02:50;;;;;;;;;;;;;;;;;;6282862;28;19939;-82
2023/12/24 12:05:50;;;;;;;;;;;;;;;;;;6288657;28;19913;-83
2023/12/24 12:08:50;;;;;;;;;;;;;;;;;;6281486;28;19921;-82
2023/12/24 12:11:51;;;;;;;;;;;;;;;;;;6289615;28;19912;-83
2023/12/24 12:14:51;;;;;;;;;;;;;;;;;;6281019;28;19920;-82
2023/12/24 12:17:51;;;;;;;;;;;;;;;;;;6281970;28;20316;-82
2023/12/24 12:20:51;;;;;;;;;;;;;;;;;;6276538;28;20321;-84
2023/12/24 12:23:51;;;;;;;;;;;;;;;;;;6291320;28;20144;-84
2023/12/24 12:26:52;;;;;;;;;;;;;;;;;;6286035;28;19992;-83
2023/12/24 12:29:52;;;;;;;;;;;;;;;;;;6287163;28;20323;-83
2023/12/24 12:32:52;;;;;;;;;;;;;;;;;;6284254;28;19954;-83
2023/12/24 12:35:52;;;;;;;;;;;;;;;;;;6295536;28;19959;-81
2023/12/24 12:38:52;;;;;;;;;;;;;;;;;;6293296;28;19959;-81
2023/12/24 12:41:53;;;;;;;;;;;;;;;;;;6283564;28;19947;-80
2023/12/24 12:44:53;;;;;;;;;;;;;;;;;;6287061;28;19913;-80
2023/12/24 12:47:53;;;;;;;;;;;;;;;;;;6284569;28;19913;-80
2023/12/24 12:50:53;;;;;;;;;;;;;;;;;;6291361;28;19935;-80
2023/12/24 12:53:53;;;;;;;;;;;;;;;;;;6287517;28;19912;-80
2023/12/24 12:56:55;;;;;;;;;;;;;;;;;;6282149;28;19913;-81
2023/12/24 12:59:56;;;;;;;;;;;;;;;;;;6275795;28;19921;-80
2023/12/24 13:02:56;;;;;;;;;;;;;;;;;;6271223;28;19943;-82
2023/12/24 13:05:57;;;;;;;;;;;;;;;;;;6280235;28;19929;-78
2023/12/24 13:08:57;;;;;;;;;;;;;;;;;;6284729;28;19920;-80
2023/12/24 13:11:57;;;;;;;;;;;;;;;;;;6287190;28;20019;-79
2023/12/24 13:14:57;;;;;;;;;;;;;;;;;;6279946;28;19944;-80
2023/12/24 13:17:57;;;;;;;;;;;;;;;;;;6282999;28;19948;-80
2023/12/24 13:20:57;;;;;;;;;;;;;;;;;;6275698;28;19921;-81
2023/12/24 13:23:58;;;;;;;;;;;;;;;;;;6269492;28;19919;-80
2023/12/24 13:26:58;;;;;;;;;;;;;;;;;;6276671;28;20396;-82
2023/12/24 13:29:58;;;;;;;;;;;;;;;;;;6280964;28;19920;-81
2023/12/24 13:32:58;;;;;;;;;;;;;;;;;;6288043;28;20015;-83
2023/12/24 13:35:58;;;;;;;;;;;;;;;;;;6284939;28;20290;-81
2023/12/24 13:38:59;;;;;;;;;;;;;;;;;;6290412;28;19913;-87
2023/12/24 13:41:59;;;;;;;;;;;;;;;;;;6294005;28;20369;-87
2023/12/24 13:44:59;;;;;;;;;;;;;;;;;;6281682;28;19982;-81
2023/12/24 13:47:59;;;;;;;;;;;;;;;;;;6287938;28;19944;-82
2023/12/24 13:50:59;;;;;;;;;;;;;;;;;;6283336;28;20332;-82
2023/12/24 13:53:59;;;;;;;;;;;;;;;;;;6285913;28;19913;-82
2023/12/24 13:57:01;;;;;;;;;;;;;;;;;;6287779;28;20387;-82
2023/12/24 14:00:01;;;;;;;;;;;;;;;;;;6276713;28;20408;-83
2023/12/24 14:03:01;;;;;;;;;;;;;;;;;;6283595;28;20395;-80
2023/12/24 14:06:03;;;;;;;;;;;;;;;;;;6281821;28;19955;-81
2023/12/24 14:09:03;;;;;;;;;;;;;;;;;;6283751;28;19917;-82
2023/12/24 14:12:03;;;;;;;;;;;;;;;;;;6282873;28;19939;-82
2023/12/24 14:15:06;;;;;;;;;;;;;;;;;;6285605;28;20494;-82
2023/12/24 14:18:06;;;;;;;;;;;;;;;;;;6290974;28;23155;-82
2023/12/24 14:21:07;;;;;;;;;;;;;;;;;;6280529;28;19929;-81
2023/12/24 14:24:07;;;;;;;;;;;;;;;;;;6278554;28;19913;-83
2023/12/24 14:27:07;;;;;;;;;;;;;;;;;;6286748;28;19913;-83
2023/12/24 14:30:07;;;;;;;;;;;;;;;;;;6274214;28;19921;-81
2023/12/24 14:33:07;;;;;;;;;;;;;;;;;;6289634;28;20420;-85
2023/12/24 14:36:08;;;;;;;;;;;;;;;;;;6285161;28;20428;-82
2023/12/24 14:39:09;;;;;;;;;;;;;;;;;;6288077;28;19920;-83
2023/12/24 14:42:09;;;;;;;;;;;;;;;;;;6294888;28;20269;-83
2023/12/24 14:45:09;;;;;;;;;;;;;;;;;;6273839;28;19913;-83
2023/12/24 14:48:10;;;;;;;;;;;;;;;;;;6274889;28;20309;-83
2023/12/24 14:51:10;;;;;;;;;;;;;;;;;;6278346;28;20277;-77
2023/12/24 14:54:10;;;;;;;;;;;;;;;;;;6285992;28;19912;-80
2023/12/24 14:57:10;;;;;;;;;;;;;;;;;;6285686;28;19917;-82
2023/12/24 15:00:11;;;;;;;;;;;;;;;;;;6285491;28;19927;-83
2023/12/24 15:03:14;;;;;;;;;;;;;;;;;;6282373;28;19921;-84
2023/12/24 15:06:14;;;;;;;;;;;;;;;;;;6290686;28;20003;-82
2023/12/24 15:09:14;;;;;;;;;;;;;;;;;;6279378;28;19976;-84
2023/12/24 15:12:15;;;;;;;;;;;;;;;;;;6288663;28;20292;-76
2023/12/24 15:15:15;;;;;;;;;;;;;;;;;;6279529;28;19952;-79
2023/12/24 15:18:15;;;;;;;;;;;;;;;;;;6284584;28;19916;-79
2023/12/24 15:21:15;;;;;;;;;;;;;;;;;;6281024;28;20049;-80
2023/12/24 15:24:15;;;;;;;;;;;;;;;;;;6274757;28;19956;-82
2023/12/24 15:27:16;;;;;;;;;;;;;;;;;;6278317;28;19951;-86
2023/12/24 15:30:16;;;;;;;;;;;;;;;;;;6287478;28;20392;-80
2023/12/24 15:33:17;;;;;;;;;;;;;;;;;;6294536;28;19913;-81
2023/12/24 15:36:17;;;;;;;;;;;;;;;;;;6294879;28;19913;-80
2023/12/24 15:39:17;;;;;;;;;;;;;;;;;;6294832;28;19924;-85
2023/12/24 15:42:17;;;;;;;;;;;;;;;;;;6286749;28;19920;-83
2023/12/24 15:45:17;;;;;;;;;;;;;;;;;;6289951;28;21454;-81
2023/12/24 15:48:17;;;;;;;;;;;;;;;;;;6278128;28;20443;-83
2023/12/24 15:51:18;;;;;;;;;;;;;;;;;;6282618;28;20070;-83
2023/12/24 15:54:18;;;;;;;;;;;;;;;;;;6291753;28;20006;-83
2023/12/24 15:57:18;;;;;;;;;;;;;;;;;;6292985;28;19913;-84
2023/12/24 16:00:18;;;;;;;;;;;;;;;;;;6294096;28;19939;-87
2023/12/24 16:03:18;;;;;;;;;;;;;;;;;;6284247;28;19921;-86
2023/12/24 16:06:18;;;;;;;;;;;;;;;;;;6287937;28;20043;-90
2023/12/24 16:09:19;;;;;;;;;;;;;;;;;;6273597;28;20304;-82
2023/12/24 16:12:20;;;;;;;;;;;;;;;;;;6287680;28;19916;-76
2023/12/24 16:15:20;;;;;;;;;;;;;;;;;;6272942;28;20436;-74
2023/12/24 16:18:21;;;;;;;;;;;;;;;;;;6279314;28;19913;-80
2023/12/24 16:21:21;;;;;;;;;;;;;;;;;;6267527;28;20020;-76
2023/12/24 16:24:22;;;;;;;;;;;;;;;;;;6293126;28;19998;-84
2023/12/24 16:27:22;;;;;;;;;;;;;;;;;;6278724;28;20012;-82
2023/12/24 16:30:23;;;;;;;;;;;;;;;;;;6278293;28;19919;-84
2023/12/24 16:33:23;;;;;;;;;;;;;;;;;;6288171;28;19969;-82
2023/12/24 16:36:24;;;;;;;;;;;;;;;;;;6275789;28;19913;-79
2023/12/24 16:39:24;;;;;;;;;;;;;;;;;;6291728;28;19951;-81
2023/12/24 16:42:25;;;;;;;;;;;;;;;;;;6284761;28;19924;-86
2023/12/24 16:45:25;;;;;;;;;;;;;;;;;;6286357;28;19913;-82
2023/12/24 16:48:25;;;;;;;;;;;;;;;;;;6270918;28;20011;-82
2023/12/24 16:51:25;;;;;;;;;;;;;;;;;;6289539;28;19917;-84
2023/12/24 16:54:27;;;;;;;;;;;;;;;;;;6289089;28;19936;-81
2023/12/24 16:57:27;;;;;;;;;;;;;;;;;;6288745;28;19920;-76
2023/12/24 17:00:28;;;;;;;;;;;;;;;;;;6284535;28;19920;-80
2023/12/24 17:03:28;;;;;;;;;;;;;;;;;;6283803;28;19923;-83
2023/12/24 17:06:28;;;;;;;;;;;;;;;;;;6275907;28;19919;-80
2023/12/24 17:09:28;;;;;;;;;;;;;;;;;;6287620;28;19913;-82
2023/12/24 17:12:31;;;;;;;;;;;;;;;;;;6285686;28;19946;-89
2023/12/24 17:15:33;;;;;;;;;;;;;;;;;;6270008;28;20284;-82
2023/12/24 17:18:33;;;;;;;;;;;;;;;;;;6275186;28;19966;-84
2023/12/24 17:21:33;;;;;;;;;;;;;;;;;;6294504;28;19921;-81
2023/12/24 17:24:33;;;;;;;;;;;;;;;;;;6289974;28;19912;-82
2023/12/24 17:27:33;;;;;;;;;;;;;;;;;;6284354;28;19958;-83
2023/12/24 17:30:34;;;;;;;;;;;;;;;;;;6268047;28;20003;-78
2023/12/24 17:33:34;;;;;;;;;;;;;;;;;;6275182;28;20391;-81
2023/12/24 17:36:34;;;;;;;;;;;;;;;;;;6294225;28;20349;-82
2023/12/24 17:39:34;;;;;;;;;;;;;;;;;;6283195;28;19955;-81
2023/12/24 17:42:34;;;;;;;;;;;;;;;;;;6294607;28;19931;-79
2023/12/24 17:45:34;;;;;;;;;;;;;;;;;;6283460;28;19917;-80
2023/12/24 17:48:34;;;;;;;;;;;;;;;;;;6286967;28;20034;-79
2023/12/24 17:51:35;;;;;;;;;;;;;;;;;;6286578;28;19916;-85
2023/12/24 17:54:35;;;;;;;;;;;;;;;;;;6285094;28;19919;-88
2023/12/24 17:57:35;;;;;;;;;;;;;;;;;;6285196;28;19927;-84
2023/12/24 18:00:35;;;;;;;;;;;;;;;;;;6265615;28;19920;-82
2023/12/24 18:03:35;;;;;;;;;;;;;;;;;;6293415;28;19912;-78
2023/12/24 18:06:35;;;;;;;;;;;;;;;;;;6281374;28;19913;-78
2023/12/24 18:09:36;;;;;;;;;;;;;;;;;;6284584;28;19920;-79
2023/12/24 18:12:36;;;;;;;;;;;;;;;;;;6290873;28;19919;-78
2023/12/24 18:15:36;;;;;;;;;;;;;;;;;;6285450;28;19912;-79
2023/12/24 18:18:36;;;;;;;;;;;;;;;;;;6285884;28;19970;-81
2023/12/24 18:21:36;;;;;;;;;;;;;;;;;;6283743;28;19928;-80
2023/12/24 18:24:36;;;;;;;;;;;;;;;;;;6266272;28;19916;-81
2023/12/24 18:27:36;;;;;;;;;;;;;;;;;;6286259;28;21215;-83
2023/12/24 18:30:37;;;;;;;;;;;;;;;;;;6284806;28;19985;-85
2023/12/24 18:33:37;;;;;;;;;;;;;;;;;;6289473;28;20050;-87
2023/12/24 18:36:37;;;;;;;;;;;;;;;;;;6279429;28;19995;-86
2023/12/24 18:39:37;;;;;;;;;;;;;;;;;;6274299;28;19951;-80
2023/12/24 18:42:37;;;;;;;;;;;;;;;;;;6283832;28;20405;-85
2023/12/24 18:45:37;;;;;;;;;;;;;;;;;;6274089;28;20447;-83
2023/12/24 18:48:37;;;;;;;;;;;;;;;;;;6289176;28;19951;-89
2023/12/24 18:51:38;;;;;;;;;;;;;;;;;;6293658;28;19938;-90
2023/12/24 18:54:39;;;;;;;;;;;;;;;;;;6271126;28;19985;-90
2023/12/24 18:57:39;;;;;;;;;;;;;;;;;;6287449;28;19917;-89
2023/12/24 19:00:40;;;;;;;;;;;;;;;;;;6272685;28;19924;-88
2023/12/24 19:03:40;;;;;;;;;;;;;;;;;;6279654;28;19916;-89
2023/12/24 19:06:40;;;;;;;;;;;;;;;;;;6293610;28;19924;-83
2023/12/24 19:09:42;;;;;;;;;;;;;;;;;;6275723;28;20453;-87
2023/12/24 19:12:42;;;;;;;;;;;;;;;;;;6288988;28;19917;-80
2023/12/24 19:15:42;;;;;;;;;;;;;;;;;;6285107;28;20320;-78
2023/12/24 19:18:43;;;;;;;;;;;;;;;;;;6287378;28;20342;-77
2023/12/24 19:21:43;;;;;;;;;;;;;;;;;;6273834;28;20281;-80
2023/12/24 19:24:44;;;;;;;;;;;;;;;;;;6287250;28;19916;-80
2023/12/24 19:27:45;;;;;;;;;;;;;;;;;;6286436;28;19936;-84
2023/12/24 19:30:45;;;;;;;;;;;;;;;;;;6287071;28;19928;-83
2023/12/24 19:33:45;;;;;;;;;;;;;;;;;;6289312;28;19921;-85
2023/12/24 19:36:46;;;;;;;;;;;;;;;;;;6294991;28;19912;-85
2023/12/24 19:39:46;;;;;;;;;;;;;;;;;;6274432;28;19919;-86
2023/12/24 19:42:46;;;;;;;;;;;;;;;;;;6294292;28;19913;-82
2023/12/24 19:45:47;;;;;;;;;;;;;;;;;;6271908;28;19996;-85
2023/12/24 19:48:47;;;;;;;;;;;;;;;;;;6287528;28;20420;-83
2023/12/24 19:51:47;;;;;;;;;;;;;;;;;;6291973;28;20379;-86
2023/12/24 19:54:47;;;;;;;;;;;;;;;;;;6279975;28;19965;-88
2023/12/24 19:57:47;;;;;;;;;;;;;;;;;;6294925;28;20292;-86
2023/12/24 20:00:48;;;;;;;;;;;;;;;;;;6286500;28;20170;-86
2023/12/24 20:03:48;;;;;;;;;;;;;;;;;;6293300;28;19912;-87
2023/12/24 20:06:48;;;;;;;;;;;;;;;;;;6288736;28;19909;-86
2023/12/24 20:09:48;;;;;;;;;;;;;;;;;;6293639;28;19913;-85
2023/12/24 20:12:48;;;;;;;;;;;;;;;;;;6283315;28;19913;-87
2023/12/24 20:15:48;;;;;;;;;;;;;;;;;;6291920;28;19943;-86
2023/12/24 20:18:48;;;;;;;;;;;;;;;;;;6290019;28;19928;-85
2023/12/24 20:21:48;;;;;;;;;;;;;;;;;;6286161;28;19921;-88
2023/12/24 20:24:49;;;;;;;;;;;;;;;;;;6286486;28;19927;-78
2023/12/24 20:27:49;;;;;;;;;;;;;;;;;;6285697;28;20380;-77
2023/12/24 20:30:49;;;;;;;;;;;;;;;;;;6289990;28;19951;-81